createdAt,value
2022-08-12T00:00:35.757Z,18.30
2022-08-12T00:03:21.585Z,18.30
2022-08-12T00:06:08.760Z,18.20
2022-08-12T00:08:56.864Z,18.20
2022-08-12T00:11:43.969Z,18.10
2022-08-12T00:14:29.718Z,18.00
2022-08-12T00:17:15.763Z,18.00
2022-08-12T00:20:01.400Z,18.00
2022-08-12T00:22:46.917Z,18.00
2022-08-12T00:26:20.798Z,18.00
2022-08-12T00:29:01.349Z,18.00
2022-08-12T00:31:46.893Z,18.00
2022-08-12T00:34:35.771Z,17.90
2022-08-12T00:37:21.871Z,17.90
2022-08-12T00:40:11.398Z,17.90
2022-08-12T00:42:40.497Z,17.80
2022-08-12T00:45:08.415Z,17.70
2022-08-12T00:47:36.281Z,17.60
2022-08-12T00:50:04.447Z,17.60
2022-08-12T00:52:33.128Z,17.60
2022-08-12T00:55:01.817Z,17.60
2022-08-12T00:57:32.001Z,17.60
2022-08-12T01:00:10.686Z,17.50
2022-08-12T01:02:45.271Z,17.50
2022-08-12T01:05:36.140Z,17.50
2022-08-12T01:08:21.940Z,17.60
2022-08-12T01:11:09.004Z,17.40
2022-08-12T01:13:42.403Z,17.30
2022-08-12T01:16:12.066Z,17.20
2022-08-12T01:18:40.234Z,17.20
2022-08-12T01:21:33.390Z,17.10
2022-08-12T01:24:31.349Z,17.10
2022-08-12T01:26:59.716Z,17.10
2022-08-12T01:29:33.162Z,17.20
2022-08-12T01:32:05.143Z,17.20
2022-08-12T01:34:37.580Z,17.10
2022-08-12T01:37:07.748Z,17.10
2022-08-12T01:40:35.755Z,17.00
2022-08-12T01:42:47.386Z,16.90
2022-08-12T01:45:15.624Z,16.90
2022-08-12T01:47:51.770Z,16.80
2022-08-12T01:50:31.758Z,16.90
2022-08-12T01:53:05.633Z,16.90
2022-08-12T01:55:38.259Z,16.80
2022-08-12T01:58:24.231Z,16.80
2022-08-12T02:01:03.668Z,16.80
2022-08-12T02:04:23.540Z,16.80
2022-08-12T02:07:31.444Z,16.80
2022-08-12T02:10:50.565Z,16.70
2022-08-12T02:13:49.015Z,16.70
2022-08-12T02:16:40.022Z,16.60
2022-08-12T02:19:48.984Z,16.60
2022-08-12T02:22:31.974Z,16.50
2022-08-12T02:25:07.450Z,16.50
2022-08-12T02:27:42.284Z,16.50
2022-08-12T02:30:11.695Z,16.50
2022-08-12T02:32:42.671Z,16.60
2022-08-12T02:35:14.946Z,16.70
2022-08-12T02:37:43.868Z,16.70
2022-08-12T02:40:12.879Z,16.70
2022-08-12T02:42:50.039Z,16.70
2022-08-12T02:45:22.444Z,16.70
2022-08-12T02:47:58.893Z,16.70
2022-08-12T02:50:31.483Z,16.60
2022-08-12T02:52:59.568Z,16.60
2022-08-12T02:55:34.885Z,16.60
2022-08-12T02:58:12.624Z,16.50
2022-08-12T03:00:43.092Z,16.50
2022-08-12T03:03:13.235Z,16.50
2022-08-12T03:05:57.983Z,16.50
2022-08-12T03:08:32.240Z,16.50
2022-08-12T03:11:25.757Z,16.50
2022-08-12T03:14:00.326Z,16.40
2022-08-12T03:16:33.051Z,16.40
2022-08-12T03:19:00.565Z,16.40
2022-08-12T03:21:52.243Z,16.30
2022-08-12T03:24:17.518Z,16.20
2022-08-12T03:26:47.173Z,16.20
2022-08-12T03:29:16.663Z,16.10
2022-08-12T03:31:44.102Z,16.00
2022-08-12T03:34:14.376Z,15.90
2022-08-12T03:36:42.609Z,15.90
2022-08-12T03:39:14.322Z,15.90
2022-08-12T03:41:53.224Z,15.90
2022-08-12T03:45:05.450Z,16.00
2022-08-12T03:48:10.594Z,16.00
2022-08-12T03:50:59.782Z,15.90
2022-08-12T03:53:49.553Z,15.80
2022-08-12T03:56:35.486Z,15.80
2022-08-12T03:59:23.553Z,15.80
2022-08-12T04:01:57.726Z,15.70
2022-08-12T04:04:36.316Z,15.80
2022-08-12T04:07:08.892Z,15.90
2022-08-12T04:09:38.694Z,16.00
2022-08-12T04:12:26.145Z,16.10
2022-08-12T04:14:54.385Z,16.10
2022-08-12T04:17:21.444Z,16.10
2022-08-12T04:19:48.866Z,16.10
2022-08-12T04:22:16.907Z,16.10
2022-08-12T04:24:50.587Z,16.10
2022-08-12T04:27:17.625Z,16.20
2022-08-12T04:30:21.409Z,16.30
2022-08-12T04:32:32.192Z,16.30
2022-08-12T04:34:59.158Z,16.30
2022-08-12T04:37:26.179Z,16.30
2022-08-12T04:39:54.497Z,16.40
2022-08-12T04:42:21.949Z,16.40
2022-08-12T04:44:48.839Z,16.40
2022-08-12T04:47:17.188Z,16.40
2022-08-12T04:49:45.986Z,16.50
2022-08-12T04:52:13.413Z,16.60
2022-08-12T04:54:40.733Z,16.60
2022-08-12T04:57:09.736Z,16.60
2022-08-12T04:59:47.168Z,16.70
2022-08-12T05:02:21.428Z,16.80
2022-08-12T05:05:00.736Z,16.90
2022-08-12T05:07:28.118Z,17.00
2022-08-12T05:10:00.504Z,17.10
2022-08-12T05:12:36.485Z,17.20
2022-08-12T05:15:12.732Z,17.30
2022-08-12T05:17:53.246Z,17.50
2022-08-12T05:20:21.011Z,17.60
2022-08-12T05:22:47.981Z,17.80
2022-08-12T05:25:15.853Z,17.80
2022-08-12T05:27:55.230Z,17.90
2022-08-12T05:30:26.318Z,18.10
2022-08-12T05:32:55.531Z,18.20
2022-08-12T05:35:22.692Z,18.30
2022-08-12T05:38:13.823Z,18.40
2022-08-12T05:40:41.860Z,18.50
2022-08-12T05:43:08.888Z,18.60
2022-08-12T05:45:35.702Z,18.70
2022-08-12T05:48:02.727Z,18.80
2022-08-12T05:50:29.673Z,18.90
2022-08-12T05:52:56.428Z,18.90
2022-08-12T05:55:25.817Z,19.00
2022-08-12T05:57:55.822Z,19.10
2022-08-12T06:00:25.800Z,19.10
2022-08-12T06:03:01.194Z,19.10
2022-08-12T06:05:29.045Z,19.30
2022-08-12T06:08:01.310Z,19.30
2022-08-12T06:10:32.506Z,19.30
2022-08-12T06:13:05.268Z,19.40
2022-08-12T06:15:37.771Z,19.40
2022-08-12T06:18:14.096Z,19.50
2022-08-12T06:20:43.467Z,19.50
2022-08-12T06:23:11.717Z,19.50
2022-08-12T06:25:38.995Z,19.50
2022-08-12T06:28:17.236Z,19.60
2022-08-12T06:30:53.045Z,19.70
2022-08-12T06:33:55.089Z,19.80
2022-08-12T06:36:21.157Z,19.80
2022-08-12T06:38:49.768Z,20.00
2022-08-12T06:41:35.691Z,20.10
2022-08-12T06:44:05.726Z,20.10
2022-08-12T06:46:36.600Z,20.20
2022-08-12T06:49:04.075Z,20.20
2022-08-12T06:51:32.385Z,20.20
2022-08-12T06:54:01.086Z,20.30
2022-08-12T06:56:59.612Z,20.30
2022-08-12T06:59:15.738Z,20.40
2022-08-12T07:01:50.834Z,20.50
2022-08-12T07:07:10.451Z,20.70
2022-08-12T07:10:04.269Z,20.90
2022-08-12T07:12:27.901Z,21.00
2022-08-12T07:14:55.584Z,21.70
2022-08-12T07:19:51.954Z,25.10
2022-08-12T07:22:19.114Z,26.10
2022-08-12T07:25:06.098Z,27.30
2022-08-12T07:27:40.563Z,28.10
2022-08-12T07:30:08.264Z,28.80
2022-08-12T07:32:35.044Z,29.60
2022-08-12T07:35:04.198Z,30.80
2022-08-12T07:37:31.440Z,30.80
2022-08-12T07:40:00.541Z,31.10
2022-08-12T07:42:29.640Z,31.40
2022-08-12T07:44:56.989Z,31.30
2022-08-12T07:47:25.072Z,31.80
2022-08-12T07:50:05.720Z,32.20
2022-08-12T07:52:38.700Z,32.30
2022-08-12T07:55:06.885Z,32.90
2022-08-12T07:57:34.322Z,32.90
2022-08-12T08:00:05.327Z,33.30
2022-08-12T08:02:37.067Z,33.60
2022-08-12T08:05:05.249Z,34.00
2022-08-12T08:07:32.200Z,34.10
2022-08-12T08:12:47.407Z,34.60
2022-08-12T08:15:15.570Z,34.60
2022-08-12T08:22:59.650Z,35.60
2022-08-12T08:25:36.386Z,35.80
2022-08-12T08:28:14.421Z,36.00
2022-08-12T08:30:44.444Z,35.60
2022-08-12T08:33:24.572Z,35.30
2022-08-12T08:36:02.257Z,35.10
2022-08-12T08:38:31.766Z,35.10
2022-08-12T08:42:16.295Z,35.20
2022-08-12T08:44:04.863Z,35.20
2022-08-12T08:46:34.366Z,35.20
2022-08-12T08:49:01.452Z,35.40
2022-08-12T08:51:28.281Z,35.80
2022-08-12T08:53:54.993Z,36.30
2022-08-12T08:56:22.567Z,36.70
2022-08-12T08:58:49.614Z,37.00
2022-08-12T09:01:21.430Z,37.30
2022-08-12T09:09:23.805Z,37.70
2022-08-12T09:12:12.180Z,37.70
2022-08-12T09:14:51.105Z,37.60
2022-08-12T09:20:09.599Z,38.20
2022-08-12T09:28:21.140Z,38.80
2022-08-12T09:30:59.173Z,38.70
2022-08-12T09:34:26.814Z,39.00
2022-08-12T09:36:30.986Z,39.00
2022-08-12T09:40:01.871Z,39.30
2022-08-12T09:42:38.886Z,39.10
2022-08-12T09:45:24.535Z,39.20
2022-08-12T09:48:09.622Z,39.40
2022-08-12T09:50:36.689Z,39.30
2022-08-12T09:53:17.331Z,39.20
2022-08-12T09:56:57.029Z,39.20
2022-08-12T09:59:00.026Z,39.30
2022-08-12T10:01:34.602Z,39.20
2022-08-12T10:04:05.809Z,39.20
2022-08-12T10:06:36.240Z,39.10
2022-08-12T10:09:08.410Z,39.00
2022-08-12T10:14:39.932Z,38.60
2022-08-12T10:17:21.556Z,38.70
2022-08-12T10:19:52.234Z,38.60
2022-08-12T10:22:39.495Z,38.50
2022-08-12T10:26:36.050Z,38.40
2022-08-12T10:28:38.285Z,38.40
2022-08-12T10:31:06.149Z,38.10
2022-08-12T10:33:54.986Z,37.50
2022-08-12T10:36:21.797Z,36.70
2022-08-12T10:40:01.942Z,35.80
2022-08-12T10:42:15.709Z,34.90
2022-08-12T10:44:46.746Z,33.70
2022-08-12T10:47:25.973Z,33.00
2022-08-12T10:50:04.610Z,32.50
2022-08-12T10:52:41.342Z,31.80
2022-08-12T10:55:13.125Z,31.40
2022-08-12T10:58:14.690Z,31.10
2022-08-12T11:00:34.426Z,30.90
2022-08-12T11:04:27.909Z,30.60
2022-08-12T11:07:10.116Z,30.40
2022-08-12T11:08:46.094Z,30.20
2022-08-12T11:12:07.483Z,30.10
2022-08-12T11:14:05.367Z,30.10
2022-08-12T11:16:33.279Z,30.00
2022-08-12T11:19:03.012Z,29.90
2022-08-12T11:21:57.930Z,29.80
2022-08-12T11:24:31.668Z,29.70
2022-08-12T11:27:01.674Z,29.60
2022-08-12T11:30:06.289Z,29.60
2022-08-12T11:32:22.444Z,29.40
2022-08-12T11:34:53.452Z,29.30
2022-08-12T11:37:25.716Z,29.30
2022-08-12T11:42:39.737Z,29.50
2022-08-12T11:45:13.218Z,29.30
2022-08-12T11:47:43.443Z,29.20
2022-08-12T11:53:02.313Z,29.30
2022-08-12T11:55:29.738Z,29.10
2022-08-12T11:58:48.931Z,29.00
2022-08-12T12:03:43.692Z,29.00
2022-08-12T12:06:16.851Z,29.00
2022-08-12T12:08:50.940Z,28.90
2022-08-12T12:11:19.837Z,28.70
2022-08-12T12:14:11.080Z,28.50
2022-08-12T12:16:37.997Z,28.50
2022-08-12T12:19:10.076Z,28.40
2022-08-12T12:21:47.508Z,28.40
2022-08-12T12:24:20.794Z,28.50
2022-08-12T12:27:00.562Z,28.50
2022-08-12T12:30:19.552Z,28.40
2022-08-12T12:32:28.895Z,28.50
2022-08-12T12:35:14.285Z,28.60
2022-08-12T12:38:05.589Z,28.60
2022-08-12T12:40:43.669Z,28.60
2022-08-12T12:43:11.643Z,28.50
2022-08-12T12:45:44.075Z,28.50
2022-08-12T12:48:16.049Z,28.40
2022-08-12T12:50:45.630Z,28.20
2022-08-12T12:54:05.748Z,28.10
2022-08-12T12:56:20.959Z,28.00
2022-08-12T12:59:02.633Z,28.10
2022-08-12T13:01:31.784Z,28.20
2022-08-12T13:04:01.925Z,28.10
2022-08-12T13:06:31.602Z,28.00
2022-08-12T13:09:02.642Z,28.00
2022-08-12T13:11:41.236Z,28.00
2022-08-12T13:14:13.026Z,28.00
2022-08-12T13:16:55.362Z,27.90
2022-08-12T13:19:25.428Z,27.80
2022-08-12T13:22:19.242Z,27.60
2022-08-12T13:24:56.874Z,27.50
2022-08-12T13:27:34.898Z,27.40
2022-08-12T13:30:06.520Z,27.50
2022-08-12T13:32:34.158Z,27.60
2022-08-12T13:35:04.007Z,27.80
2022-08-12T13:37:44.009Z,27.90
2022-08-12T13:40:18.379Z,28.00
2022-08-12T13:42:46.342Z,28.20
2022-08-12T13:45:13.697Z,28.30
2022-08-12T13:48:03.855Z,28.40
2022-08-12T13:50:43.505Z,28.40
2022-08-12T13:53:23.878Z,28.40
2022-08-12T13:56:01.980Z,28.50
2022-08-12T13:58:30.782Z,28.60
2022-08-12T14:01:05.434Z,28.60
2022-08-12T14:03:50.878Z,28.50
2022-08-12T14:06:19.045Z,28.40
2022-08-12T14:08:49.909Z,28.40
2022-08-12T14:11:19.105Z,28.40
2022-08-12T14:14:03.646Z,28.40
2022-08-12T14:16:46.976Z,28.30
2022-08-12T14:19:24.826Z,28.30
2022-08-12T14:22:01.278Z,28.20
2022-08-12T14:24:35.166Z,28.20
2022-08-12T14:27:03.412Z,28.20
2022-08-12T14:29:55.699Z,28.10
2022-08-12T14:32:22.408Z,28.00
2022-08-12T14:34:51.613Z,28.10
2022-08-12T14:37:57.279Z,28.10
2022-08-12T14:40:06.911Z,27.90
2022-08-12T14:42:33.645Z,27.70
2022-08-12T14:45:02.176Z,27.60
2022-08-12T14:47:35.111Z,27.50
2022-08-12T14:50:37.538Z,27.40
2022-08-12T14:58:31.776Z,27.30
2022-08-12T15:01:21.162Z,27.20
2022-08-12T15:03:57.897Z,27.20
2022-08-12T15:06:44.001Z,27.10
2022-08-12T15:09:16.389Z,27.10
2022-08-12T15:11:54.486Z,27.00
2022-08-12T15:14:26.602Z,27.00
2022-08-12T15:16:57.139Z,26.90
2022-08-12T15:20:28.287Z,26.90
2022-08-12T15:22:38.059Z,26.80
2022-08-12T15:25:07.892Z,26.70
2022-08-12T15:28:05.528Z,26.70
2022-08-12T15:30:30.645Z,26.60
2022-08-12T15:32:57.907Z,26.50
2022-08-12T15:35:31.111Z,26.40
2022-08-12T15:38:17.189Z,26.30
2022-08-12T15:40:49.442Z,26.20
2022-08-12T15:43:35.479Z,26.20
2022-08-12T15:46:06.327Z,26.10
2022-08-12T15:48:33.201Z,26.10
2022-08-12T15:51:03.008Z,26.00
2022-08-12T15:53:53.420Z,26.00
2022-08-12T15:56:29.418Z,26.00
2022-08-12T15:59:00.250Z,25.90
2022-08-12T16:01:35.681Z,25.90
2022-08-12T16:04:05.342Z,25.90
2022-08-12T16:09:56.660Z,25.80
2022-08-12T16:12:11.192Z,25.80
2022-08-12T16:14:39.199Z,25.70
2022-08-12T16:17:09.068Z,25.60
2022-08-12T16:20:03.829Z,25.60
2022-08-12T16:22:29.331Z,25.60
2022-08-12T16:24:57.107Z,25.50
2022-08-12T16:27:25.543Z,25.50
2022-08-12T16:29:57.271Z,25.50
2022-08-12T16:32:31.660Z,25.40
2022-08-12T16:35:00.846Z,25.40
2022-08-12T16:38:28.486Z,25.30
2022-08-12T16:40:20.358Z,25.20
2022-08-12T16:45:32.024Z,25.20
2022-08-12T16:48:33.991Z,25.10
2022-08-12T16:51:09.518Z,25.00
2022-08-12T16:53:44.140Z,25.00
2022-08-12T16:56:15.122Z,25.00
2022-08-12T16:58:43.510Z,24.80
2022-08-12T17:01:14.462Z,24.80
2022-08-12T17:03:46.947Z,24.70
2022-08-12T17:06:22.380Z,24.60
2022-08-12T17:09:00.698Z,24.60
2022-08-12T17:11:28.857Z,24.40
2022-08-12T17:13:58.346Z,24.40
2022-08-12T17:16:29.995Z,24.30
2022-08-12T17:21:40.604Z,24.10
2022-08-12T17:24:15.049Z,24.00
2022-08-12T17:26:49.400Z,23.90
2022-08-12T17:29:24.329Z,23.70
2022-08-12T17:32:10.022Z,23.70
2022-08-12T17:34:55.574Z,23.60
2022-08-12T17:37:22.390Z,23.50
2022-08-12T17:40:13.562Z,23.40
2022-08-12T17:42:42.259Z,23.30
2022-08-12T17:45:18.456Z,23.20
2022-08-12T17:48:01.668Z,23.10
2022-08-12T17:50:35.902Z,23.00
2022-08-12T17:53:03.658Z,22.90
2022-08-12T17:55:43.740Z,22.80
2022-08-12T18:00:45.866Z,22.60
2022-08-12T18:03:57.658Z,22.60
2022-08-12T18:06:13.636Z,22.50
2022-08-12T18:08:55.035Z,22.50
2022-08-12T18:12:03.718Z,22.40
2022-08-12T18:14:29.850Z,22.40
2022-08-12T18:17:00.603Z,22.30
2022-08-12T18:20:03.517Z,22.20
2022-08-12T18:22:17.664Z,22.20
2022-08-12T18:25:00.728Z,22.20
2022-08-12T18:27:44.089Z,22.20
2022-08-12T18:33:03.739Z,22.50
2022-08-12T18:35:42.309Z,22.10
2022-08-12T18:38:18.217Z,22.10
2022-08-12T18:43:38.844Z,22.00
2022-08-12T18:46:29.187Z,21.90
2022-08-12T18:48:56.964Z,21.90
2022-08-12T18:51:49.163Z,21.90
2022-08-12T18:54:21.777Z,21.90
2022-08-12T18:56:49.650Z,21.80
2022-08-12T19:00:02.334Z,21.80
2022-08-12T19:02:21.082Z,21.80
2022-08-12T19:04:50.535Z,21.80
2022-08-12T19:07:25.575Z,21.80
2022-08-12T19:10:00.079Z,21.70
2022-08-12T19:12:56.864Z,21.70
2022-08-12T19:15:29.958Z,21.70
2022-08-12T19:18:02.660Z,21.60
2022-08-12T19:20:30.573Z,21.60
2022-08-12T19:22:59.987Z,21.60
2022-08-12T19:25:59.530Z,21.60
2022-08-12T19:28:29.960Z,21.50
2022-08-12T19:31:56.690Z,21.50
2022-08-12T19:37:15.383Z,21.50
2022-08-12T19:40:07.805Z,21.50
2022-08-12T19:42:32.936Z,21.50
2022-08-12T19:45:04.923Z,21.50
2022-08-12T19:47:38.751Z,21.50
2022-08-12T19:50:06.920Z,21.50
2022-08-12T19:52:38.985Z,21.50
2022-08-12T19:55:17.944Z,21.50
2022-08-12T19:58:01.123Z,21.50
2022-08-12T20:00:29.000Z,21.50
2022-08-12T20:02:59.301Z,21.50
2022-08-12T20:06:07.103Z,21.50
2022-08-12T20:08:16.690Z,21.50
2022-08-12T20:12:14.440Z,21.50
2022-08-12T20:13:58.020Z,21.40
2022-08-12T20:16:52.608Z,21.40
2022-08-12T20:19:16.050Z,21.40
2022-08-12T20:21:43.437Z,21.40
2022-08-12T20:24:12.709Z,21.30
2022-08-12T20:26:42.028Z,21.30
2022-08-12T20:29:13.495Z,21.30
2022-08-12T20:31:41.396Z,21.30
2022-08-12T20:34:09.341Z,21.40
2022-08-12T20:36:44.690Z,21.30
2022-08-12T20:39:34.026Z,21.30
2022-08-12T20:42:07.024Z,21.30
2022-08-12T20:44:39.717Z,21.30
2022-08-12T20:47:17.723Z,21.30
2022-08-12T20:49:46.491Z,21.30
2022-08-12T20:52:29.041Z,21.30
2022-08-12T20:54:57.160Z,21.20
2022-08-12T20:57:24.122Z,21.20
2022-08-12T20:59:52.585Z,21.30
2022-08-12T21:02:24.725Z,21.20
2022-08-12T21:05:19.531Z,21.20
2022-08-12T21:07:51.930Z,21.20
2022-08-12T21:10:20.816Z,21.20
2022-08-12T21:12:48.884Z,21.20
2022-08-12T21:15:23.285Z,21.20
2022-08-12T21:18:15.563Z,21.20
2022-08-12T21:20:52.912Z,21.20
2022-08-12T21:23:23.661Z,21.20
2022-08-12T21:25:56.110Z,21.20
2022-08-12T21:28:27.518Z,21.20
2022-08-12T21:32:34.684Z,21.20
2022-08-12T21:33:58.446Z,21.20
2022-08-12T21:36:34.597Z,21.20
2022-08-12T21:39:35.261Z,21.10
2022-08-12T21:42:07.040Z,21.10
2022-08-12T21:45:47.004Z,21.00
2022-08-12T21:47:22.688Z,21.00
2022-08-12T21:50:03.157Z,21.00
2022-08-12T21:52:35.548Z,20.90
2022-08-12T21:55:08.061Z,20.90
2022-08-12T21:57:50.649Z,20.90
2022-08-12T22:00:23.960Z,20.90
2022-08-12T22:04:01.626Z,20.90
2022-08-12T22:06:30.428Z,20.80
2022-08-12T22:09:09.012Z,20.80
2022-08-12T22:11:56.177Z,20.70
2022-08-12T22:14:30.372Z,20.70
2022-08-12T22:17:00.640Z,20.60
2022-08-12T22:19:27.876Z,20.70
2022-08-12T22:21:56.300Z,20.70
2022-08-12T22:24:30.431Z,20.60
2022-08-12T22:27:08.227Z,20.60
2022-08-12T22:30:08.671Z,20.60
2022-08-12T22:32:56.477Z,20.60
2022-08-12T22:35:56.299Z,20.70
2022-08-12T22:38:20.877Z,20.60
2022-08-12T22:40:49.170Z,20.60
2022-08-12T22:43:35.907Z,20.60
2022-08-12T22:46:22.620Z,20.60
2022-08-12T22:48:53.403Z,20.60
2022-08-12T22:51:24.726Z,20.50
2022-08-12T22:53:54.140Z,20.50
2022-08-12T22:56:30.979Z,20.50
2022-08-12T22:59:03.016Z,20.50
2022-08-12T23:01:52.575Z,20.50
2022-08-12T23:04:27.639Z,20.40
2022-08-12T23:07:00.115Z,20.50
2022-08-12T23:09:44.991Z,20.50
2022-08-12T23:12:37.458Z,20.50
2022-08-12T23:15:13.122Z,20.60
2022-08-12T23:17:41.656Z,20.60
2022-08-12T23:20:10.815Z,20.60
2022-08-12T23:22:38.506Z,20.60
2022-08-12T23:25:07.795Z,20.60
2022-08-12T23:28:04.689Z,20.60
2022-08-12T23:30:35.160Z,20.60
2022-08-12T23:33:20.579Z,20.60
2022-08-12T23:36:02.310Z,20.50
2022-08-12T23:38:32.242Z,20.60
2022-08-12T23:41:04.304Z,20.60
2022-08-12T23:43:39.222Z,20.60
2022-08-12T23:46:11.188Z,20.60
2022-08-12T23:48:38.910Z,20.50
2022-08-12T23:51:22.182Z,20.50
2022-08-12T23:53:59.887Z,20.50
2022-08-12T23:56:29.195Z,20.50
2022-08-12T23:58:58.545Z,20.60
